.
WxDataArchive / Data Records for 2009-05-22
2009-05-21 May 2009 2009-05-23

Data Records for Friday, 22 May 2009

Time	Temp	Chill	HIndex	Humid	Dewpt	 Wind 	HiWind	WindDir	Rain 	Barom 
-----	----	-----	------	-----	-----	------	------	-------	-----	----- 
00:00	65.2	65.2	65.2	70	55.2	0	0	---	0.00	30.130 
00:05	65.2	65.2	65.2	70	55.2	0	0	---	0.00	30.130 
00:10	65.3	65.3	65.3	70	55.3	0	0	---	0.00	30.130 
00:15	65.5	65.5	65.5	70	55.4	0	0	---	0.00	30.125 
00:20	65.5	65.5	65.5	70	55.4	0	0	---	0.00	30.125 
00:25	65.5	65.5	65.5	70	55.4	0	0	---	0.00	30.125 
00:30	65.3	65.3	65.3	70	55.3	0	0	---	0.00	30.127 
00:35	65.2	65.2	65.2	71	55.6	0	0	---	0.00	30.127 
00:40	64.8	64.8	64.8	71	55.2	0	0	---	0.00	30.127 
00:45	64.7	64.7	64.7	71	55.1	0	0	---	0.00	30.127 
00:50	64.3	64.3	64.3	73	55.5	0	0	---	0.00	30.127 
00:55	64.2	64.2	64.2	73	55.4	0	0	---	0.00	30.127 
01:00	63.7	63.7	63.7	74	55.3	0	0	---	0.00	30.128 
01:05	63.5	63.5	63.5	75	55.4	0	0	---	0.00	30.128 
01:10	63.2	63.2	63.2	75	55.1	0	0	---	0.00	30.128 
01:15	63.1	63.1	63.1	76	55.4	0	0	---	0.00	30.129 
01:20	62.7	62.7	62.7	76	55.0	0	0	---	0.00	30.129 
01:25	62.6	62.6	62.6	77	55.3	0	0	---	0.00	30.129 
01:30	62.6	62.6	62.6	77	55.3	0	0	---	0.00	30.126 
01:35	62.4	62.4	62.4	78	55.4	0	0	---	0.00	30.126 
01:40	62.3	62.3	62.3	78	55.3	0	0	---	0.00	30.126 
01:45	62.1	62.1	62.1	78	55.2	0	0	---	0.00	30.127 
01:50	62.0	62.0	62.0	79	55.4	0	0	---	0.00	30.127 
01:55	62.0	62.0	62.0	79	55.4	0	0	---	0.00	30.127 
02:00	61.8	61.8	61.8	79	55.2	0	0	---	0.00	30.126 
02:05	61.8	61.8	61.8	79	55.2	0	0	---	0.00	30.126 
02:10	61.8	61.8	61.8	79	55.2	0	0	---	0.00	30.126 
02:15	61.6	61.6	61.6	79	55.0	0	0	---	0.00	30.124 
02:20	61.6	61.6	61.6	79	55.0	0	0	---	0.00	30.124 
02:25	61.5	61.5	61.5	80	55.3	0	0	---	0.00	30.124 
02:30	61.3	61.3	61.3	80	55.1	0	0	---	0.00	30.121 
02:35	61.3	61.3	61.3	80	55.1	0	0	---	0.00	30.121 
02:40	61.3	61.3	61.3	80	55.1	0	0	---	0.00	30.121 
02:45	61.3	61.3	61.3	80	55.1	0	0	---	0.00	30.123 
02:50	61.3	61.3	61.3	80	55.1	0	0	---	0.00	30.123 
02:55	61.3	61.3	61.3	80	55.1	0	0	---	0.00	30.123 
03:00	61.2	61.2	61.2	80	55.0	0	0	---	0.00	30.122 
03:05	61.3	61.3	61.3	81	55.4	0	0	---	0.00	30.122 
03:10	61.3	61.3	61.3	81	55.4	0	0	---	0.00	30.122 
03:15	61.3	61.3	61.3	81	55.4	0	0	---	0.00	30.121 
03:20	61.3	61.3	61.3	81	55.4	0	0	---	0.00	30.121 
03:25	61.3	61.3	61.3	81	55.4	0	0	---	0.00	30.121 
03:30	61.3	61.3	61.3	81	55.4	0	0	---	0.00	30.120 
03:35	61.5	61.5	61.5	81	55.6	0	0	---	0.00	30.120 
03:40	61.6	61.6	61.6	81	55.7	0	0	---	0.00	30.120 
03:45	61.6	61.6	61.6	81	55.7	0	0	---	0.00	30.117 
03:50	61.8	61.8	61.8	80	55.6	0	0	---	0.00	30.117 
03:55	62.0	62.0	62.0	79	55.4	0	0	---	0.00	30.117 
04:00	62.3	62.3	62.3	78	55.3	0	0	---	0.00	30.117 
04:05	62.4	62.4	62.4	78	55.4	0	0	---	0.00	30.117 
04:10	62.4	62.4	62.4	78	55.4	0	0	---	0.00	30.117 
04:15	62.4	62.4	62.4	77	55.1	0	0	---	0.00	30.118 
04:20	62.7	62.7	62.7	77	55.4	0	0	---	0.00	30.118 
04:25	62.9	62.9	62.9	77	55.6	0	0	---	0.00	30.118 
04:30	62.9	62.9	62.9	77	55.6	0	0	---	0.00	30.118 
04:35	62.9	62.9	62.9	77	55.6	0	0	---	0.00	30.118 
04:40	62.9	62.9	62.9	77	55.6	0	0	---	0.00	30.118 
04:45	62.7	62.7	62.7	77	55.4	0	0	---	0.00	30.117 
04:50	62.7	62.7	62.7	77	55.4	0	0	---	0.00	30.117 
04:55	62.7	62.7	62.7	77	55.4	0	0	---	0.00	30.117 
05:00	62.7	62.7	62.7	77	55.4	0	0	---	0.00	30.114 
05:05	62.6	62.6	62.6	77	55.3	0	0	---	0.00	30.114 
05:10	62.6	62.6	62.6	78	55.6	0	0	---	0.00	30.114 
05:15	62.4	62.4	62.4	78	55.4	0	0	---	0.00	30.113 
05:20	62.4	62.4	62.4	78	55.4	0	0	---	0.00	30.113 
05:25	62.3	62.3	62.3	79	55.7	0	0	---	0.00	30.113 
05:30	62.3	62.3	62.3	79	55.7	0	0	---	0.00	30.116 
05:35	62.1	62.1	62.1	79	55.5	0	0	---	0.00	30.116 
05:40	62.1	62.1	62.1	80	55.9	0	0	---	0.00	30.116 
05:45	62.0	62.0	62.0	80	55.8	0	0	---	0.00	30.121 
05:50	61.8	61.8	61.8	80	55.6	0	0	---	0.00	30.121 
05:55	62.0	62.0	62.0	81	56.1	0	0	---	0.00	30.121 
06:00	62.1	62.1	62.1	80	55.9	0	0	---	0.00	30.119 
06:05	62.3	62.3	62.3	80	56.0	0	0	---	0.00	30.119 
06:10	62.3	62.3	62.3	80	56.0	0	0	---	0.00	30.119 
06:15	62.4	62.4	62.4	80	56.1	0	0	---	0.00	30.123 
06:20	62.4	62.4	62.4	79	55.8	0	0	---	0.00	30.123 
06:25	62.6	62.6	62.6	80	56.3	0	0	---	0.00	30.123 
06:30	62.6	62.6	62.6	79	56.0	0	0	---	0.00	30.125 
06:35	62.6	62.6	62.6	80	56.3	0	0	---	0.00	30.125 
06:40	62.7	62.7	62.7	79	56.1	0	0	---	0.00	30.125 
06:45	62.9	62.9	62.9	79	56.3	0	0	---	0.00	30.126 
06:50	63.1	63.1	63.1	79	56.5	0	0	---	0.00	30.126 
06:55	63.2	63.2	63.2	79	56.6	0	0	---	0.00	30.126 
07:00	63.4	63.4	63.4	79	56.8	0	0	---	0.00	30.131 
07:05	63.5	63.5	63.5	79	56.9	0	0	---	0.00	30.131 
07:10	63.7	63.7	63.7	79	57.1	0	0	---	0.00	30.131 
07:15	63.9	63.9	63.9	79	57.3	0	0	---	0.00	30.135 
07:20	64.2	64.2	64.2	78	57.2	0	0	---	0.00	30.135 
07:25	64.3	64.3	64.3	78	57.3	0	0	---	0.00	30.135 
07:30	64.5	64.5	64.5	78	57.5	0	0	---	0.00	30.139 
07:35	64.8	64.8	64.8	78	57.8	0	0	---	0.00	30.139 
07:40	65.0	65.0	65.0	77	57.6	0	0	---	0.00	30.139 
07:45	65.2	65.2	65.2	77	57.8	0	0	---	0.00	30.143 
07:50	65.5	65.5	65.5	77	58.1	0	0	---	0.00	30.143 
07:55	65.8	65.8	65.8	76	58.0	0	0	---	0.00	30.143 
08:00	66.0	66.0	66.0	76	58.2	0	0	---	0.00	30.144 
08:05	66.3	66.3	66.3	75	58.1	0	0	---	0.00	30.144 
08:10	66.6	66.6	66.6	73	57.7	0	0	---	0.00	30.144 
08:15	66.9	66.9	66.9	73	58.0	0	0	---	0.00	30.149 
08:20	67.3	67.3	67.3	72	58.0	0	0	---	0.00	30.149 
08:25	67.6	67.6	67.6	71	57.9	0	0	---	0.00	30.149 
08:30	67.9	67.9	67.9	71	58.1	0	0	---	0.00	30.154 
08:35	68.1	68.1	68.1	70	57.9	0	0	---	0.00	30.154 
08:40	68.4	68.4	68.4	71	58.6	0	0	---	0.00	30.154 
08:45	68.6	68.6	68.6	70	58.4	0	0	---	0.00	30.162 
08:50	68.8	68.8	68.8	71	59.0	0	0	---	0.00	30.162 
08:55	68.9	68.9	68.9	69	58.3	0	0	---	0.00	30.162 
09:00	68.9	68.9	68.9	71	59.1	0	0	---	0.00	30.170 
09:05	69.3	69.3	69.3	69	58.7	0	2	158	0.00	30.170 
09:10	69.8	69.8	69.8	69	59.2	0	1	158	0.00	30.170 
09:15	70.1	70.1	70.1	69	59.4	0	2	158	0.00	30.176 
09:20	70.1	70.1	70.1	69	59.4	0	1	292	0.00	30.176 
09:25	70.3	70.3	70.3	66	58.4	1	4	135	0.00	30.176 
09:30	70.3	70.3	70.3	67	58.8	0	2	135	0.00	30.180 
09:35	70.8	70.8	70.8	65	58.4	2	4	135	0.00	30.180 
09:40	71.3	71.3	71.3	65	58.9	1	4	68	0.00	30.180 
09:45	69.9	69.9	69.9	64	57.2	5	12	90	0.00	30.189 
09:50	67.9	67.9	67.9	66	56.1	3	7	112	0.00	30.189 
09:55	66.8	66.8	66.8	68	55.9	3	11	112	0.00	30.189 
10:00	66.1	66.1	66.1	65	54.0	3	9	90	0.00	30.198 
10:05	65.5	65.5	65.5	68	54.7	4	9	90	0.00	30.198 
10:10	65.5	65.5	65.5	66	53.8	3	9	112	0.00	30.198 
10:15	65.8	65.8	65.8	66	54.1	3	9	112	0.00	30.199 
10:20	66.1	66.1	66.1	65	54.0	3	7	112	0.00	30.199 
10:25	66.1	66.1	66.1	64	53.6	3	5	112	0.00	30.199 
10:30	66.8	66.8	66.8	64	54.2	3	7	90	0.00	30.200 
10:35	66.9	66.9	66.9	62	53.4	3	10	90	0.00	30.200 
10:40	66.9	66.9	66.9	63	53.9	4	9	90	0.00	30.200 
10:45	67.1	67.1	67.1	62	53.6	2	6	112	0.00	30.202 
10:50	67.6	67.6	67.6	61	53.7	3	9	112	0.00	30.202 
10:55	67.8	67.8	67.8	61	53.9	3	7	112	0.00	30.202 
11:00	68.1	68.1	68.1	60	53.7	3	7	112	0.00	30.198 
11:05	68.4	68.4	68.4	61	54.4	3	12	112	0.00	30.198 
11:10	68.1	68.1	68.1	60	53.7	3	10	112	0.00	30.198 
11:15	68.1	68.1	68.1	59	53.2	3	7	90	0.00	30.199 
11:20	68.1	68.1	68.1	61	54.1	3	11	112	0.00	30.199 
11:25	68.3	68.3	68.3	59	53.4	3	6	90	0.00	30.199 
11:30	68.3	68.3	68.3	59	53.4	4	10	90	0.00	30.199 
11:35	68.8	68.8	68.8	58	53.4	3	7	90	0.00	30.199 
11:40	69.3	69.3	69.3	58	53.9	3	7	112	0.00	30.199 
11:45	69.6	69.6	69.6	56	53.2	3	6	90	0.00	30.197 
11:50	69.8	69.8	69.8	57	53.9	4	12	90	0.00	30.197 
11:55	69.9	69.9	69.9	56	53.5	3	9	90	0.00	30.197 
12:00	70.1	70.1	70.1	56	53.7	3	7	90	0.00	30.197 
12:05	70.3	70.3	70.3	53	52.3	3	7	90	0.00	30.197 
12:10	70.4	70.4	70.4	54	52.9	3	6	90	0.00	30.197 
12:15	70.6	70.6	70.6	54	53.1	3	6	90	0.00	30.196 
12:20	71.1	71.1	71.1	54	53.6	1	6	90	0.00	30.196 
12:25	71.1	71.1	71.1	52	52.6	3	6	90	0.00	30.196 
12:30	71.3	71.3	71.3	53	53.3	2	5	90	0.00	30.193 
12:35	71.1	71.1	71.1	51	52.0	3	7	112	0.00	30.193 
12:40	71.1	71.1	71.1	53	53.1	2	6	45	0.00	30.193 
12:45	71.5	71.5	71.5	51	52.4	2	5	135	0.00	30.188 
12:50	71.3	71.3	71.3	51	52.2	4	11	90	0.00	30.188 
12:55	71.5	71.5	71.5	54	54.0	3	10	90	0.00	30.188 
13:00	72.0	72.0	72.0	50	52.3	2	6	112	0.00	30.186 
13:05	72.3	72.3	72.3	52	53.7	2	7	90	0.00	30.186 
13:10	72.8	72.8	72.8	50	53.1	2	6	112	0.00	30.186 
13:15	73.0	73.0	73.0	50	53.2	2	6	112	0.00	30.185 
13:20	72.7	72.7	72.7	48	51.9	4	10	90	0.00	30.185 
13:25	72.8	72.8	72.8	50	53.1	2	7	90	0.00	30.185 
13:30	73.3	73.3	73.3	50	53.5	2	7	90	0.00	30.186 
13:35	73.7	73.7	73.7	49	53.3	2	5	112	0.00	30.186 
13:40	73.7	73.7	73.7	49	53.3	3	7	90	0.00	30.186 
13:45	74.0	74.0	74.0	50	54.2	2	5	90	0.00	30.191 
13:50	74.2	74.2	74.2	51	54.9	2	5	112	0.00	30.191 
13:55	74.4	74.4	74.4	47	52.8	2	4	112	0.00	30.191 
14:00	74.6	74.6	74.6	49	54.2	1	4	112	0.00	30.182 
14:05	74.7	74.7	74.7	45	51.9	2	6	112	0.00	30.182 
14:10	75.1	75.1	77.7	46	52.9	1	4	112	0.00	30.182 
14:15	75.3	75.3	77.7	45	52.5	2	6	112	0.00	30.181 
14:20	75.3	75.3	77.7	48	54.2	2	5	90	0.00	30.181 
14:25	74.7	74.7	74.7	45	51.9	3	6	90	0.00	30.181 
14:30	74.2	74.2	74.2	45	51.5	3	6	90	0.00	30.182 
14:35	74.6	74.6	74.6	44	51.2	3	7	90	0.00	30.182 
14:40	74.9	74.9	74.9	45	52.1	3	6	90	0.00	30.182 
14:45	75.3	75.3	77.7	49	54.8	2	9	112	0.00	30.176 
14:50	75.3	75.3	77.6	42	50.6	3	9	90	0.00	30.176 
14:55	75.4	75.4	77.7	43	51.3	2	7	112	0.00	30.176 
15:00	75.4	75.4	77.7	43	51.3	3	6	112	0.00	30.171 
15:05	75.6	75.6	77.8	43	51.5	2	5	112	0.00	30.171 
15:10	76.0	76.0	78.0	46	53.7	1	4	68	0.00	30.171 
15:15	76.3	76.3	78.0	43	52.1	1	4	68	0.00	30.165 
15:20	76.3	76.3	78.1	46	54.0	2	7	90	0.00	30.165 
15:25	76.5	76.5	78.1	43	52.3	2	5	112	0.00	30.165 
15:30	76.5	76.5	78.2	45	53.6	2	9	112	0.00	30.163 
15:35	76.5	76.5	78.1	41	51.0	2	6	112	0.00	30.163 
15:40	76.7	76.7	78.2	43	52.5	1	4	90	0.00	30.163 
15:45	77.2	77.2	78.4	42	52.3	2	4	90	0.00	30.162 
15:50	77.0	77.0	78.3	42	52.1	2	6	68	0.00	30.162 
15:55	77.0	77.0	78.3	42	52.1	2	10	90	0.00	30.162 
16:00	77.0	77.0	78.3	42	52.1	3	6	90	0.00	30.161 
16:05	76.8	76.8	78.4	47	55.0	2	5	90	0.00	30.161 
16:10	77.0	77.0	78.3	42	52.1	2	5	112	0.00	30.161 
16:15	77.4	77.4	78.4	40	51.2	3	7	90	0.00	30.156 
16:20	77.2	77.2	78.4	41	51.7	2	5	112	0.00	30.156 
16:25	77.2	77.2	78.3	39	50.3	2	5	112	0.00	30.156 
16:30	76.8	76.8	78.2	42	51.9	2	5	90	0.00	30.146 
16:35	77.0	77.0	78.2	40	50.8	2	7	112	0.00	30.146 
16:40	77.0	77.0	78.4	45	54.0	2	6	112	0.00	30.146 
16:45	77.4	77.4	78.4	40	51.2	1	4	90	0.00	30.142 
16:50	77.9	77.9	78.8	43	53.6	2	4	90	0.00	30.142 
16:55	78.1	78.1	78.8	41	52.5	3	9	112	0.00	30.142 
17:00	77.9	77.9	78.6	39	50.9	3	7	90	0.00	30.136 
17:05	77.7	77.7	78.5	39	50.7	3	7	90	0.00	30.136 
17:10	77.7	77.7	78.6	41	52.1	2	5	90	0.00	30.136 
17:15	77.6	77.6	78.6	42	52.7	3	6	90	0.00	30.134 
17:20	77.6	77.6	78.6	41	52.0	2	7	112	0.00	30.134 
17:25	77.6	77.6	78.6	41	52.0	2	6	90	0.00	30.134 
17:30	77.6	77.6	78.7	43	53.3	3	8	90	0.00	30.138 
17:35	77.4	77.4	78.4	40	51.2	2	6	90	0.00	30.138 
17:40	77.2	77.2	78.3	40	51.0	2	5	112	0.00	30.138 
17:45	77.0	77.0	78.2	40	50.8	3	6	90	0.00	30.141 
17:50	76.7	76.7	78.1	41	51.2	2	6	90	0.00	30.141 
17:55	76.5	76.5	78.0	40	50.4	2	5	90	0.00	30.141 
18:00	76.5	76.5	78.0	40	50.4	3	6	112	0.00	30.139 
18:05	76.3	76.3	77.9	40	50.2	4	9	90	0.00	30.139 
18:10	76.0	76.0	77.8	40	49.9	3	6	90	0.00	30.139 
18:15	76.0	76.0	77.9	42	51.2	2	6	90	0.00	30.139 
18:20	76.0	76.0	77.8	40	49.9	2	6	112	0.00	30.139 
18:25	75.8	75.8	77.7	40	49.7	2	4	112	0.00	30.139 
18:30	75.8	75.8	77.8	41	50.4	2	7	90	0.00	30.134 
18:35	75.8	75.8	77.7	40	49.7	1	4	112	0.00	30.134 
18:40	75.6	75.6	77.7	40	49.6	3	5	90	0.00	30.134 
18:45	75.3	75.3	77.6	41	50.0	2	5	90	0.00	30.133 
18:50	75.1	75.1	77.5	40	49.1	2	6	90	0.00	30.133 
18:55	74.9	74.9	74.9	41	49.6	3	6	112	0.00	30.133 
19:00	74.7	74.7	74.7	40	48.8	2	7	90	0.00	30.132 
19:05	74.7	74.7	74.7	42	50.1	2	6	112	0.00	30.132 
19:10	74.7	74.7	74.7	41	49.4	2	4	90	0.00	30.132 
19:15	74.6	74.6	74.6	40	48.7	2	7	112	0.00	30.130 
19:20	74.4	74.4	74.4	41	49.1	2	4	90	0.00	30.130 
19:25	74.2	74.2	74.2	40	48.3	2	6	90	0.00	30.130 
19:30	74.0	74.0	74.0	40	48.1	3	6	90	0.00	30.131 
19:35	74.0	74.0	74.0	42	49.4	2	7	90	0.00	30.131 
19:40	73.9	73.9	73.9	40	48.0	2	6	90	0.00	30.131 
19:45	73.7	73.7	73.7	41	48.5	1	4	90	0.00	30.133 
19:50	73.5	73.5	73.5	41	48.3	2	4	90	0.00	30.133 
19:55	73.5	73.5	73.5	42	49.0	3	6	90	0.00	30.133 
20:00	73.2	73.2	73.2	41	48.1	3	6	90	0.00	30.137 
20:05	73.0	73.0	73.0	43	49.2	2	5	112	0.00	30.137 
20:10	72.7	72.7	72.7	42	48.3	2	5	112	0.00	30.137 
20:15	72.5	72.5	72.5	43	48.7	2	4	112	0.00	30.140 
20:20	72.3	72.3	72.3	43	48.5	2	4	90	0.00	30.140 
20:25	72.0	72.0	72.0	43	48.3	1	3	90	0.00	30.140 
20:30	71.8	71.8	71.8	44	48.7	1	4	90	0.00	30.143 
20:35	71.6	71.6	71.6	44	48.5	2	4	90	0.00	30.143 
20:40	71.3	71.3	71.3	45	48.8	1	4	68	0.00	30.143 
20:45	70.9	70.9	70.9	46	49.1	2	5	68	0.00	30.145 
20:50	70.6	70.6	70.6	46	48.8	2	4	68	0.00	30.145 
20:55	70.4	70.4	70.4	46	48.6	2	5	112	0.00	30.145 
21:00	70.3	70.3	70.3	46	48.5	2	5	90	0.00	30.149 
21:05	69.9	69.9	69.9	46	48.2	2	5	90	0.00	30.149 
21:10	69.6	69.6	69.6	46	47.9	2	6	90	0.00	30.149 
21:15	69.4	69.4	69.4	47	48.3	2	5	90	0.00	30.151 
21:20	68.9	68.9	68.9	48	48.4	2	4	90	0.00	30.151 
21:25	68.6	68.6	68.6	49	48.7	2	4	90	0.00	30.151 
21:30	68.3	68.3	68.3	49	48.4	2	4	90	0.00	30.154 
21:35	68.1	68.1	68.1	50	48.7	2	6	90	0.00	30.154 
21:40	67.8	67.8	67.8	51	49.0	2	5	90	0.00	30.154 
21:45	67.4	67.4	67.4	51	48.6	1	3	90	0.00	30.160 
21:50	67.3	67.3	67.3	52	49.1	2	5	68	0.00	30.160 
21:55	67.1	67.1	67.1	52	48.9	2	4	68	0.00	30.160 
22:00	66.9	66.9	66.9	53	49.2	1	4	68	0.00	30.165 
22:05	66.8	66.8	66.8	53	49.1	2	5	68	0.00	30.165 
22:10	66.6	66.6	66.6	53	48.9	2	5	90	0.00	30.165 
22:15	66.4	66.4	66.4	53	48.7	2	5	90	0.00	30.163 
22:20	66.3	66.3	66.3	53	48.6	2	4	112	0.00	30.163 
22:25	66.1	66.1	66.1	54	49.0	1	4	112	0.00	30.163 
22:30	65.8	65.8	65.8	54	48.7	2	4	68	0.00	30.167 
22:35	65.6	65.6	65.6	55	49.0	1	3	68	0.00	30.167 
22:40	65.3	65.3	65.3	55	48.7	2	5	68	0.00	30.167 
22:45	65.2	65.2	65.2	56	49.1	1	4	90	0.00	30.170 
22:50	65.0	65.0	65.0	56	48.9	1	4	90	0.00	30.170 
22:55	64.8	64.8	64.8	56	48.7	2	5	68	0.00	30.170 
23:00	64.7	64.7	64.7	56	48.6	2	5	90	0.00	30.170 
23:05	64.5	64.5	64.5	56	48.4	1	4	68	0.00	30.170 
23:10	64.3	64.3	64.3	56	48.3	2	4	90	0.00	30.170 
23:15	64.2	64.2	64.2	56	48.2	2	5	68	0.00	30.167 
23:20	64.0	64.0	64.0	56	48.0	2	3	68	0.00	30.167 
23:25	63.9	63.9	63.9	57	48.4	1	4	68	0.00	30.167 
23:30	63.7	63.7	63.7	57	48.2	2	5	68	0.00	30.168 
23:35	63.4	63.4	63.4	56	47.4	2	4	90	0.00	30.168 
23:40	63.2	63.2	63.2	57	47.7	2	4	90	0.00	30.168 
23:45	63.1	63.1	63.1	58	48.1	1	3	90	0.00	30.167 
23:50	62.7	62.7	62.7	58	47.7	1	3	90	0.00	30.167 
23:55	62.6	62.6	62.6	59	48.1	1	3	90	0.00	30.167 

CoCoRaHS
IN-AL-39
A2 Web Hosting
Creative Commons License
GoDaddy
search engine by freefind advanced

loaded 2018-11-16 23:34:28 • last modified 2010-11-18 10:43:29
Privacy PolicyDisclaimer
• wx.awcolley.com is powered by PmWiki v.2002016 •
• all content (unless otherwise noted) © 2018 A W Colley